Time;durP1;ratioP1;P1;durP2;ratioP2;P2;SDS_P1;SDS_P2;PMS_P1;PMS_P2;Temp;Humidity;BMP_temperature;BMP_pressure;BME280_temperature;BME280_humidity;BME280_pressure;Samples;Min_cycle;Max_cycle;Signal;HPM_P1;HPM_P2
2022/10/18 00:01:05;;;;;;;123.53;35.63;;;11.80;99.90;;;;;;5008802;28;20044;-41
2022/10/18 00:03:32;;;;;;;111.00;33.70;;;11.40;99.90;;;;;;5008398;28;20120;-40
2022/10/18 00:05:58;;;;;;;109.95;34.00;;;11.80;99.90;;;;;;5008474;28;20121;-40
2022/10/18 00:08:24;;;;;;;92.82;33.60;;;11.50;99.90;;;;;;5008293;28;20052;-42
2022/10/18 00:10:50;;;;;;;112.00;35.50;;;11.50;99.90;;;;;;5008263;28;20431;-40
2022/10/18 00:13:16;;;;;;;140.93;38.13;;;11.60;99.90;;;;;;5008266;28;20103;-40
2022/10/18 00:15:54;;;;;;;129.27;36.50;;;11.60;99.90;;;;;;5008045;28;20133;-41
2022/10/18 00:18:20;;;;;;;153.80;41.47;;;11.40;99.90;;;;;;5008139;28;20133;-40
2022/10/18 00:20:57;;;;;;;192.77;43.13;;;11.70;99.90;;;;;;5008171;28;20500;-41
2022/10/18 00:23:23;;;;;;;202.88;43.95;;;11.70;99.90;;;;;;5008199;28;20350;-41
2022/10/18 00:26:06;;;;;;;182.35;42.40;;;11.90;99.90;;;;;;5008321;28;20177;-40
2022/10/18 00:28:34;;;;;;;207.05;41.80;;;11.60;99.90;;;;;;5007583;28;20049;-40
2022/10/18 00:31:18;;;;;;;197.43;43.83;;;11.60;99.90;;;;;;5008112;28;20058;-41
2022/10/18 00:33:45;;;;;;;170.05;38.22;;;11.50;99.90;;;;;;5007799;28;20049;-40
2022/10/18 00:36:12;;;;;;;184.32;43.15;;;11.40;99.90;;;;;;5007724;28;20092;-40
2022/10/18 00:38:38;;;;;;;179.43;41.97;;;11.50;99.90;;;;;;5007731;28;20046;-40
2022/10/18 00:41:06;;;;;;;153.40;39.60;;;12.20;99.90;;;;;;5007851;28;20038;-40
2022/10/18 00:43:32;;;;;;;173.70;40.90;;;11.60;99.90;;;;;;5007763;28;20037;-40
2022/10/18 00:45:58;;;;;;;205.18;42.83;;;11.40;99.90;;;;;;5006898;28;20080;-40
2022/10/18 00:48:24;;;;;;;214.93;44.25;;;11.50;99.90;;;;;;5007777;28;20467;-40
2022/10/18 00:50:51;;;;;;;185.65;43.83;;;11.40;99.90;;;;;;5007108;28;20682;-41
2022/10/18 00:53:20;;;;;;;144.60;37.50;;;11.30;99.90;;;;;;5007436;28;20115;-42
2022/10/18 00:55:46;;;;;;;178.23;40.03;;;11.50;99.90;;;;;;5007107;28;20058;-41
2022/10/18 00:58:15;;;;;;;174.07;41.35;;;11.20;99.90;;;;;;5007346;28;20042;-40
2022/10/18 01:00:41;;;;;;;186.98;43.35;;;11.40;99.90;;;;;;5007214;28;20567;-40
2022/10/18 01:03:07;;;;;;;153.90;40.05;;;11.40;99.90;;;;;;5007334;28;20065;-40
2022/10/18 01:05:38;;;;;;;178.43;41.63;;;11.40;99.90;;;;;;5007397;28;20175;-41
2022/10/18 01:08:18;;;;;;;127.90;37.13;;;11.80;99.90;;;;;;5007413;28;20049;-40
2022/10/18 01:11:08;;;;;;;159.40;39.88;;;11.50;99.90;;;;;;5006405;28;20050;-40
2022/10/18 01:13:33;;;;;;;152.55;40.20;;;11.50;99.90;;;;;;5007105;28;20084;-40
2022/10/18 01:16:26;;;;;;;164.18;40.17;;;11.60;99.90;;;;;;5006840;28;20428;-41
2022/10/18 01:19:09;;;;;;;119.50;36.25;;;11.50;99.90;;;;;;5007425;28;20053;-40
2022/10/18 01:22:11;;;;;;;196.68;41.65;;;11.50;99.90;;;;;;5007574;28;20073;-40
2022/10/18 01:24:45;;;;;;;160.13;38.45;;;11.50;99.90;;;;;;4984832;28;20487;-40
2022/10/18 01:27:28;;;;;;;190.00;41.97;;;11.60;99.90;;;;;;5003921;28;20111;-40
2022/10/18 01:30:05;;;;;;;157.20;40.33;;;11.60;99.90;;;;;;5007282;28;20840;-40
2022/10/18 01:32:43;;;;;;;179.50;41.97;;;12.10;99.90;;;;;;5007150;28;20141;-40
2022/10/18 01:35:18;;;;;;;135.60;36.50;;;11.50;99.90;;;;;;5006933;28;20553;-40
2022/10/18 01:37:47;;;;;;;188.32;39.30;;;11.90;99.90;;;;;;5006707;28;20046;-41
2022/10/18 01:40:17;;;;;;;175.43;39.85;;;11.40;99.90;;;;;;5006835;28;20048;-41
2022/10/18 01:42:45;;;;;;;157.35;39.28;;;11.30;99.90;;;;;;5005296;28;20104;-40
2022/10/18 01:45:12;;;;;;;133.80;37.35;;;11.40;99.90;;;;;;5007018;28;20108;-40
2022/10/18 01:47:39;;;;;;;147.30;37.75;;;12.00;99.90;;;;;;5006771;28;20045;-40
2022/10/18 01:50:05;;;;;;;184.45;42.22;;;11.70;99.90;;;;;;5006732;28;20049;-40
2022/10/18 01:52:31;;;;;;;130.27;36.10;;;11.40;99.90;;;;;;5006730;28;20037;-40
2022/10/18 01:54:59;;;;;;;83.78;31.15;;;11.70;99.90;;;;;;5006325;28;20562;-40
2022/10/18 01:57:36;;;;;;;130.50;36.85;;;11.30;99.90;;;;;;5005153;28;20046;-40
2022/10/18 02:00:24;;;;;;;183.57;39.28;;;11.30;99.90;;;;;;5006713;28;20061;-42
2022/10/18 02:03:03;;;;;;;178.27;42.50;;;11.30;99.90;;;;;;5006841;28;20045;-41
2022/10/18 02:05:34;;;;;;;160.73;39.80;;;11.60;99.90;;;;;;5006976;28;20061;-40
2022/10/18 02:08:45;;;;;;;173.68;41.45;;;11.20;99.90;;;;;;5007042;28;20081;-40
2022/10/18 02:11:14;;;;;;;132.85;36.85;;;11.20;99.90;;;;;;4984445;28;20205;-40
2022/10/18 02:13:50;;;;;;;162.95;40.40;;;11.20;99.90;;;;;;4984326;28;20339;-40
2022/10/18 02:16:39;;;;;;;145.15;38.20;;;11.10;99.90;;;;;;4997563;28;20061;-40
2022/10/18 02:19:21;;;;;;;175.60;40.25;;;11.10;99.90;;;;;;5006408;28;20085;-41
2022/10/18 02:21:48;;;;;;;221.07;41.13;;;11.10;99.90;;;;;;5008387;28;20067;-40
2022/10/18 02:24:15;;;;;;;146.82;37.47;;;11.10;99.90;;;;;;5010659;28;20121;-40
2022/10/18 02:26:41;;;;;;;184.38;40.35;;;11.10;99.90;;;;;;5010476;28;20076;-41
2022/10/18 02:29:07;;;;;;;174.88;39.92;;;11.10;99.90;;;;;;5010610;28;20034;-40
2022/10/18 02:31:41;;;;;;;180.45;41.75;;;11.80;99.90;;;;;;5010814;28;20195;-41
2022/10/18 02:34:13;;;;;;;186.82;40.25;;;11.10;99.90;;;;;;5010541;28;20561;-41
2022/10/18 02:36:47;;;;;;;231.40;45.38;;;11.10;99.90;;;;;;5010550;28;20484;-41
2022/10/18 02:39:18;;;;;;;151.65;39.22;;;11.00;99.90;;;;;;5010591;28;20034;-40
2022/10/18 02:41:43;;;;;;;189.38;41.67;;;11.10;99.90;;;;;;5010292;28;20113;-40
2022/10/18 02:44:10;;;;;;;407.45;48.58;;;11.00;99.90;;;;;;5009379;28;20449;-40
2022/10/18 02:46:36;;;;;;;271.15;41.40;;;11.00;99.90;;;;;;5009787;28;20038;-40
2022/10/18 02:49:02;;;;;;;220.57;40.67;;;10.90;99.90;;;;;;5009394;28;20042;-41
2022/10/18 02:51:27;;;;;;;242.43;38.28;;;10.40;99.90;;;;;;5009944;28;20038;-40
2022/10/18 02:53:53;;;;;;;516.20;53.90;;;10.80;99.90;;;;;;5009358;28;20121;-40
2022/10/18 02:56:18;;;;;;;431.75;45.03;;;10.40;99.90;;;;;;5009664;28;20468;-41
2022/10/18 02:58:44;;;;;;;314.90;38.13;;;10.60;99.90;;;;;;5009724;28;20658;-40
2022/10/18 03:01:10;;;;;;;280.65;34.65;;;11.80;99.90;;;;;;5009640;28;20044;-41
2022/10/18 03:03:35;;;;;;;219.18;32.20;;;10.70;99.90;;;;;;5009660;28;20064;-40
2022/10/18 03:06:01;;;;;;;305.88;40.00;;;10.90;99.90;;;;;;5009721;28;20053;-41
2022/10/18 03:08:29;;;;;;;218.43;28.23;;;10.60;99.90;;;;;;5009718;28;20112;-40
2022/10/18 03:10:55;;;;;;;279.35;36.20;;;10.50;99.90;;;;;;5009528;28;20045;-40
2022/10/18 03:13:20;;;;;;;408.30;46.25;;;11.60;99.90;;;;;;5009465;28;20586;-40
2022/10/18 03:15:47;;;;;;;296.80;37.13;;;10.60;99.90;;;;;;5009343;28;20045;-40
2022/10/18 03:18:13;;;;;;;443.45;46.22;;;10.60;99.90;;;;;;5008896;28;20153;-40
2022/10/18 03:20:40;;;;;;;411.63;46.95;;;10.50;99.90;;;;;;5009067;28;20564;-40
2022/10/18 03:23:06;;;;;;;404.25;47.38;;;10.70;99.90;;;;;;5008919;28;20049;-43
2022/10/18 03:25:33;;;;;;;308.20;41.38;;;10.60;99.90;;;;;;5009293;28;20137;-40
2022/10/18 03:27:59;;;;;;;288.58;42.03;;;10.70;99.90;;;;;;5009044;28;20050;-40
2022/10/18 03:30:24;;;;;;;225.95;37.35;;;11.40;99.90;;;;;;5009067;28;20447;-41
2022/10/18 03:32:50;;;;;;;313.73;44.55;;;10.80;99.90;;;;;;5008456;28;20046;-40
2022/10/18 03:35:16;;;;;;;338.40;46.72;;;10.90;99.90;;;;;;5009040;28;20061;-40
2022/10/18 03:37:42;;;;;;;261.67;44.42;;;10.90;99.90;;;;;;5009337;28;20088;-40
2022/10/18 03:40:08;;;;;;;285.50;44.63;;;11.10;99.90;;;;;;5008711;28;20078;-40
2022/10/18 03:42:33;;;;;;;323.67;44.15;;;11.00;99.90;;;;;;5008608;28;20589;-40
2022/10/18 03:44:59;;;;;;;195.68;38.03;;;11.00;99.90;;;;;;5008333;28;20046;-40
2022/10/18 03:47:25;;;;;;;268.60;41.95;;;11.80;99.90;;;;;;5008237;28;20136;-40
2022/10/18 03:49:50;;;;;;;257.27;43.63;;;11.90;99.90;;;;;;5008609;28;20048;-40
2022/10/18 03:52:16;;;;;;;258.65;45.15;;;11.10;99.90;;;;;;5008479;28;20574;-40
2022/10/18 03:54:41;;;;;;;262.80;42.75;;;11.20;99.90;;;;;;5008411;28;20133;-40
2022/10/18 03:57:07;;;;;;;311.92;47.65;;;11.20;99.90;;;;;;5008375;28;20040;-41
2022/10/18 03:59:33;;;;;;;312.85;48.58;;;11.30;99.90;;;;;;5008410;28;20045;-41
2022/10/18 04:01:58;;;;;;;233.27;44.80;;;11.50;99.90;;;;;;5008708;28;20046;-41
2022/10/18 04:04:24;;;;;;;317.77;47.95;;;11.30;99.90;;;;;;5008389;28;20053;-39
2022/10/18 04:06:50;;;;;;;225.10;42.72;;;11.40;99.90;;;;;;5002916;28;20046;-38
2022/10/18 04:09:21;;;;;;;237.23;45.88;;;11.70;99.90;;;;;;5004118;28;20053;-40
2022/10/18 04:11:49;;;;;;;285.58;46.22;;;11.40;99.90;;;;;;5007077;28;20050;-39
2022/10/18 04:14:15;;;;;;;290.05;45.15;;;12.30;99.90;;;;;;5006695;28;20056;-39
2022/10/18 04:16:41;;;;;;;280.13;45.60;;;11.50;99.90;;;;;;5006042;28;20054;-39
2022/10/18 04:19:06;;;;;;;368.05;49.85;;;11.80;99.90;;;;;;5006554;28;20038;-39
2022/10/18 04:21:32;;;;;;;351.48;47.05;;;11.50;99.90;;;;;;5005630;28;20054;-39
2022/10/18 04:23:57;;;;;;;358.65;49.75;;;11.50;99.90;;;;;;5007019;28;20421;-38
2022/10/18 04:26:23;;;;;;;183.05;38.10;;;11.80;99.90;;;;;;5006764;28;20084;-38
2022/10/18 04:28:49;;;;;;;343.70;47.88;;;11.60;99.90;;;;;;5007198;28;20041;-39
2022/10/18 04:31:14;;;;;;;259.50;39.55;;;11.90;99.90;;;;;;5006448;28;20046;-38
2022/10/18 04:33:40;;;;;;;212.05;39.72;;;11.60;99.90;;;;;;5008823;28;20038;-38
2022/10/18 04:36:06;;;;;;;365.40;49.88;;;12.40;99.90;;;;;;5008348;28;20404;-38
2022/10/18 04:38:31;;;;;;;123.95;33.28;;;12.00;99.90;;;;;;5008741;28;20045;-38
2022/10/18 04:40:57;;;;;;;134.10;32.90;;;11.70;99.90;;;;;;5008020;28;20391;-38
2022/10/18 04:43:23;;;;;;;168.02;34.58;;;11.70;99.90;;;;;;5007610;28;20037;-38
2022/10/18 04:45:50;;;;;;;201.32;35.40;;;12.30;99.90;;;;;;5007910;28;20404;-38
2022/10/18 04:48:16;;;;;;;238.88;37.75;;;11.70;99.90;;;;;;5008631;28;20121;-38
2022/10/18 04:50:42;;;;;;;189.10;34.60;;;11.80;99.90;;;;;;5007973;28;20049;-38
2022/10/18 04:53:08;;;;;;;166.70;33.00;;;11.80;99.90;;;;;;5008280;28;20157;-39
2022/10/18 04:55:34;;;;;;;145.65;30.20;;;12.10;99.90;;;;;;5008384;28;20129;-38
2022/10/18 04:57:59;;;;;;;237.73;35.80;;;11.90;99.90;;;;;;5008179;28;20073;-38
2022/10/18 05:00:25;;;;;;;276.42;37.13;;;11.90;99.90;;;;;;5006387;28;20037;-38
2022/10/18 05:02:59;;;;;;;221.85;33.80;;;11.90;99.90;;;;;;5008411;28;20100;-38
2022/10/18 05:05:25;;;;;;;208.88;34.60;;;11.90;99.90;;;;;;5008119;28;20041;-38
2022/10/18 05:07:51;;;;;;;220.07;32.92;;;11.90;99.90;;;;;;5008144;28;20069;-38
2022/10/18 05:10:16;;;;;;;257.77;36.47;;;11.80;99.90;;;;;;5008281;28;20042;-38
2022/10/18 05:12:42;;;;;;;191.90;32.70;;;11.80;99.90;;;;;;5007929;28;20049;-38
2022/10/18 05:15:08;;;;;;;306.23;40.42;;;11.80;99.90;;;;;;5007508;28;20053;-38
2022/10/18 05:17:34;;;;;;;277.83;36.95;;;11.90;99.90;;;;;;5006959;28;20061;-38
2022/10/18 05:20:00;;;;;;;243.90;33.85;;;12.50;99.90;;;;;;5007314;28;20052;-38
2022/10/18 05:22:25;;;;;;;246.85;36.13;;;12.00;99.90;;;;;;5007201;28;20112;-38
2022/10/18 05:24:51;;;;;;;206.68;33.83;;;12.10;99.90;;;;;;5007028;28;20383;-38
2022/10/18 05:27:17;;;;;;;191.68;32.13;;;11.70;99.90;;;;;;5007216;28;20056;-38
2022/10/18 05:29:43;;;;;;;147.70;29.13;;;12.20;99.90;;;;;;5007124;28;20045;-38
2022/10/18 05:32:08;;;;;;;252.15;34.35;;;11.80;99.90;;;;;;5007899;28;20045;-38
2022/10/18 05:34:34;;;;;;;179.35;30.55;;;11.80;99.90;;;;;;5007362;28;20077;-38
2022/10/18 05:37:00;;;;;;;226.43;33.40;;;11.80;99.90;;;;;;5007551;28;20034;-38
2022/10/18 05:39:25;;;;;;;240.10;34.35;;;11.70;99.90;;;;;;5007563;28;20100;-38
2022/10/18 05:41:51;;;;;;;258.20;33.08;;;11.50;99.90;;;;;;5007727;28;20033;-38
2022/10/18 05:44:17;;;;;;;390.02;38.90;;;11.50;99.90;;;;;;5007743;28;20037;-38
2022/10/18 05:46:42;;;;;;;249.40;30.08;;;11.50;99.90;;;;;;5007344;28;20038;-38
2022/10/18 05:49:11;;;;;;;297.30;35.70;;;11.70;99.90;;;;;;5007548;28;20053;-38
2022/10/18 05:51:37;;;;;;;261.67;32.03;;;12.60;99.90;;;;;;5007397;28;20100;-38
2022/10/18 05:54:03;;;;;;;193.50;27.00;;;11.20;99.90;;;;;;5006984;28;20046;-38
2022/10/18 05:56:29;;;;;;;455.38;36.05;;;10.90;99.90;;;;;;5006518;28;20045;-38
2022/10/18 05:58:54;;;;;;;310.60;28.45;;;10.90;99.90;;;;;;5007269;28;20048;-38
2022/10/18 06:01:20;;;;;;;201.52;24.70;;;10.80;99.90;;;;;;5006871;28;20392;-38
2022/10/18 06:03:47;;;;;;;208.98;26.58;;;11.20;99.90;;;;;;5007010;28;20113;-38
2022/10/18 06:06:13;;;;;;;149.57;21.75;;;10.80;99.90;;;;;;5006872;28;20064;-38
2022/10/18 06:08:41;;;;;;;226.93;28.58;;;10.80;99.90;;;;;;5006768;28;20045;-38
2022/10/18 06:11:14;;;;;;;243.50;29.52;;;10.80;99.90;;;;;;5007079;28;20049;-38
2022/10/18 06:13:41;;;;;;;197.70;25.83;;;10.80;99.90;;;;;;5006636;28;20054;-38
2022/10/18 06:16:08;;;;;;;245.82;31.33;;;10.70;99.90;;;;;;5006539;28;20488;-38
2022/10/18 06:18:33;;;;;;;183.55;26.27;;;11.50;99.90;;;;;;5007049;28;20046;-38
2022/10/18 06:20:59;;;;;;;210.95;30.15;;;10.90;99.90;;;;;;5007353;28;20048;-38
2022/10/18 06:23:26;;;;;;;251.32;31.85;;;10.90;99.90;;;;;;5007507;28;20038;-38
2022/10/18 06:25:52;;;;;;;201.43;27.80;;;11.70;99.90;;;;;;5007324;28;20046;-38
2022/10/18 06:28:18;;;;;;;213.90;29.77;;;11.30;99.90;;;;;;5007115;28;20049;-38
2022/10/18 06:30:44;;;;;;;210.90;28.67;;;10.80;99.90;;;;;;5006760;28;20042;-38
2022/10/18 06:33:12;;;;;;;212.50;30.70;;;11.40;99.90;;;;;;5007007;28;20104;-38
2022/10/18 06:35:38;;;;;;;169.68;27.35;;;10.90;99.90;;;;;;5005850;28;20048;-38
2022/10/18 06:38:05;;;;;;;111.53;22.95;;;10.80;99.90;;;;;;5006603;28;20046;-38
2022/10/18 06:40:36;;;;;;;178.20;27.90;;;10.90;99.90;;;;;;5006391;28;20088;-38
2022/10/18 06:43:05;;;;;;;196.45;27.70;;;10.70;99.90;;;;;;5006875;28;20064;-38
2022/10/18 06:45:32;;;;;;;156.10;25.30;;;10.60;99.90;;;;;;5006417;28;20046;-38
2022/10/18 06:47:58;;;;;;;149.80;25.55;;;10.90;99.90;;;;;;5006653;28;20077;-38
2022/10/18 06:50:24;;;;;;;185.98;27.52;;;11.40;99.90;;;;;;5006153;28;20127;-38
2022/10/18 06:52:51;;;;;;;210.70;29.10;;;11.10;99.90;;;;;;5006089;28;20042;-38
2022/10/18 06:55:17;;;;;;;148.73;24.48;;;11.20;99.90;;;;;;5005984;28;20042;-38
2022/10/18 06:57:42;;;;;;;199.20;26.65;;;10.90;99.90;;;;;;5006006;28;20041;-38
2022/10/18 07:00:09;;;;;;;218.13;26.95;;;10.90;99.90;;;;;;5006353;28;20388;-38
2022/10/18 07:02:36;;;;;;;182.93;24.52;;;10.90;99.90;;;;;;5005852;28;20184;-38
2022/10/18 07:05:02;;;;;;;278.02;30.15;;;10.90;99.90;;;;;;5005940;28;20049;-38
2022/10/18 07:07:29;;;;;;;177.18;24.63;;;11.00;99.90;;;;;;5007154;28;20403;-38
2022/10/18 07:09:55;;;;;;;210.52;25.98;;;11.00;99.90;;;;;;5010335;28;20050;-38
2022/10/18 07:12:21;;;;;;;219.95;27.95;;;11.10;99.90;;;;;;5010237;28;20408;-38
2022/10/18 07:14:46;;;;;;;242.73;22.88;;;11.80;99.90;;;;;;5010247;28;20049;-38
2022/10/18 07:17:12;;;;;;;204.75;25.85;;;11.00;99.90;;;;;;5009992;28;20062;-38
2022/10/18 07:19:38;;;;;;;155.68;23.75;;;12.00;99.90;;;;;;5009601;28;20057;-38
2022/10/18 07:22:03;;;;;;;181.02;23.48;;;11.00;99.90;;;;;;5009821;28;20052;-38
2022/10/18 07:24:29;;;;;;;155.13;23.92;;;11.30;99.90;;;;;;5010324;28;20125;-38
2022/10/18 07:26:55;;;;;;;149.65;23.80;;;11.50;99.90;;;;;;5009917;28;20050;-39
2022/10/18 07:29:20;;;;;;;91.32;19.55;;;11.40;99.90;;;;;;5009333;28;20054;-38
2022/10/18 07:31:46;;;;;;;174.68;25.00;;;12.30;99.90;;;;;;5009890;28;20052;-38
2022/10/18 07:34:12;;;;;;;174.23;24.27;;;11.50;99.90;;;;;;5009823;28;20642;-38
2022/10/18 07:36:38;;;;;;;136.00;22.48;;;11.60;99.90;;;;;;5009901;28;20042;-37
2022/10/18 07:39:05;;;;;;;184.07;25.58;;;11.60;99.90;;;;;;5009472;28;20049;-38
2022/10/18 07:41:32;;;;;;;193.55;27.35;;;11.70;99.90;;;;;;5009192;28;20044;-38
2022/10/18 07:43:59;;;;;;;205.82;28.25;;;11.80;99.90;;;;;;5009739;28;20050;-38
2022/10/18 07:46:25;;;;;;;204.40;26.45;;;11.70;99.90;;;;;;5009551;28;20045;-38
2022/10/18 07:48:51;;;;;;;129.18;22.90;;;11.90;99.90;;;;;;5008901;28;20056;-38
2022/10/18 07:51:18;;;;;;;304.42;34.00;;;12.20;99.90;;;;;;5009368;28;20431;-38
2022/10/18 07:53:44;;;;;;;152.13;23.98;;;12.90;99.90;;;;;;5009110;28;20048;-38
2022/10/18 07:56:15;;;;;;;154.82;25.80;;;12.10;99.90;;;;;;5008805;28;20046;-38
2022/10/18 07:58:42;;;;;;;88.80;20.63;;;12.40;99.90;;;;;;5008624;28;20085;-38
2022/10/18 08:01:08;;;;;;;96.68;21.13;;;12.70;99.90;;;;;;5008843;28;20048;-38
2022/10/18 08:03:35;;;;;;;250.77;31.92;;;12.30;99.90;;;;;;5008605;28;20034;-38
2022/10/18 08:06:01;;;;;;;51.00;18.63;;;12.40;99.90;;;;;;5009187;28;20041;-38
2022/10/18 08:08:28;;;;;;;63.28;18.33;;;12.40;99.90;;;;;;5009143;28;20591;-38
2022/10/18 08:10:53;;;;;;;138.10;24.65;;;12.50;99.90;;;;;;5009264;28;20084;-38
2022/10/18 08:13:19;;;;;;;46.17;17.60;;;12.60;99.90;;;;;;5009850;28;20049;-38
2022/10/18 08:15:45;;;;;;;79.60;19.73;;;12.60;99.90;;;;;;5008637;28;20081;-38
2022/10/18 08:18:11;;;;;;;58.60;16.85;;;12.80;99.90;;;;;;5008470;28;20060;-38
2022/10/18 08:20:40;;;;;;;77.35;18.83;;;12.60;99.90;;;;;;5009520;28;20049;-38
2022/10/18 08:23:07;;;;;;;46.42;15.90;;;12.30;99.90;;;;;;5008723;28;20042;-39
2022/10/18 08:25:33;;;;;;;33.78;13.82;;;12.50;99.90;;;;;;5009884;28;20046;-38
2022/10/18 08:28:00;;;;;;;27.15;13.07;;;12.40;99.90;;;;;;5009446;28;20076;-38
2022/10/18 08:30:26;;;;;;;66.68;16.90;;;12.70;99.90;;;;;;5009683;28;20145;-38
2022/10/18 08:32:52;;;;;;;45.92;14.38;;;12.60;99.90;;;;;;5008530;28;20153;-38
2022/10/18 08:35:17;;;;;;;41.58;14.77;;;13.40;99.90;;;;;;5008893;28;20077;-38
2022/10/18 08:37:44;;;;;;;58.90;16.02;;;12.70;99.90;;;;;;5008487;28;20479;-38
2022/10/18 08:40:13;;;;;;;57.58;16.50;;;12.80;99.90;;;;;;5009296;28;20045;-38
2022/10/18 08:42:47;;;;;;;30.63;12.07;;;13.40;99.90;;;;;;5008258;28;20038;-38
2022/10/18 08:45:12;;;;;;;46.20;13.57;;;12.90;99.90;;;;;;5008806;28;20050;-38
2022/10/18 08:47:42;;;;;;;53.88;14.48;;;13.00;99.90;;;;;;5008378;28;20052;-38
2022/10/18 08:50:20;;;;;;;46.78;13.80;;;13.10;99.90;;;;;;5007897;28;20057;-38
2022/10/18 08:52:57;;;;;;;28.80;12.13;;;13.20;99.90;;;;;;5007541;28;20042;-39
2022/10/18 08:55:38;;;;;;;34.97;11.82;;;13.20;99.90;;;;;;5008297;28;20046;-38
2022/10/18 08:58:29;;;;;;;49.78;13.77;;;13.40;99.90;;;;;;5007705;28;20116;-38
2022/10/18 09:01:16;;;;;;;38.03;12.43;;;13.50;99.90;;;;;;5007936;28;20769;-38
2022/10/18 09:04:06;;;;;;;31.38;10.73;;;13.50;99.90;;;;;;5008573;28;20037;-38
2022/10/18 09:06:44;;;;;;;41.83;12.15;;;13.60;99.90;;;;;;5006874;28;20486;-38
2022/10/18 09:09:21;;;;;;;26.90;9.48;;;13.70;99.90;;;;;;5008445;28;20068;-38
2022/10/18 09:12:05;;;;;;;36.28;10.55;;;13.70;99.90;;;;;;5007675;28;20488;-38
2022/10/18 09:14:43;;;;;;;32.60;9.30;;;13.70;99.90;;;;;;5007955;28;20461;-38
2022/10/18 09:17:15;;;;;;;36.70;10.95;;;13.80;99.90;;;;;;5007589;28;20092;-38
2022/10/18 09:19:54;;;;;;;25.88;8.63;;;13.80;99.90;;;;;;5006661;28;20562;-38
2022/10/18 09:22:41;;;;;;;26.45;8.60;;;13.90;99.90;;;;;;5008153;28;20088;-38
2022/10/18 09:25:16;;;;;;;30.25;8.45;;;13.90;99.90;;;;;;5006935;28;20066;-38
2022/10/18 09:28:12;;;;;;;28.95;8.13;;;13.90;99.90;;;;;;5007836;28;20050;-38
2022/10/18 09:30:41;;;;;;;20.13;8.80;;;13.90;99.90;;;;;;5007052;28;20042;-38
2022/10/18 09:33:31;;;;;;;28.88;7.53;;;13.90;99.90;;;;;;5007994;28;20041;-38
2022/10/18 09:36:00;;;;;;;14.70;6.10;;;14.40;99.90;;;;;;5004229;28;20100;-38
2022/10/18 09:38:32;;;;;;;24.23;8.38;;;14.10;99.90;;;;;;5007192;28;20184;-39
2022/10/18 09:41:03;;;;;;;24.98;7.88;;;14.10;99.90;;;;;;5008073;28;20502;-38
2022/10/18 09:43:42;;;;;;;30.15;7.55;;;14.10;99.90;;;;;;5007234;28;20052;-38
2022/10/18 09:46:09;;;;;;;23.48;7.25;;;14.20;99.90;;;;;;5007656;28;20496;-38
2022/10/18 09:48:59;;;;;;;21.73;6.53;;;14.20;99.90;;;;;;5007039;28;20551;-38
2022/10/18 09:51:32;;;;;;;27.98;7.75;;;14.30;99.90;;;;;;5007591;28;20065;-38
2022/10/18 09:54:05;;;;;;;25.52;6.78;;;14.30;99.90;;;;;;5007292;28;20065;-38
2022/10/18 09:57:02;;;;;;;16.27;6.25;;;14.30;99.90;;;;;;5007417;28;20088;-38
2022/10/18 09:59:40;;;;;;;16.55;5.53;;;14.40;99.90;;;;;;5005399;28;20056;-38
2022/10/18 10:02:10;;;;;;;20.70;5.32;;;14.40;99.90;;;;;;5007178;28;20045;-38
2022/10/18 10:04:36;;;;;;;20.98;5.78;;;14.40;99.90;;;;;;5007168;28;20049;-38
2022/10/18 10:07:07;;;;;;;16.55;5.18;;;14.50;99.90;;;;;;5007474;28;20052;-38
2022/10/18 10:09:55;;;;;;;24.77;6.45;;;14.50;99.90;;;;;;5007659;28;20084;-38
2022/10/18 10:12:30;;;;;;;20.85;6.50;;;14.60;99.90;;;;;;5005920;28;20045;-38
2022/10/18 10:15:25;;;;;;;17.77;6.53;;;14.60;99.90;;;;;;5007161;28;20498;-38
2022/10/18 10:18:16;;;;;;;24.38;4.63;;;14.70;99.90;;;;;;5006845;28;20755;-38
2022/10/18 10:20:45;;;;;;;22.50;4.55;;;14.60;99.90;;;;;;5007625;28;20042;-38
2022/10/18 10:23:24;;;;;;;14.10;4.20;;;14.70;99.90;;;;;;5006994;28;20145;-38
2022/10/18 10:25:56;;;;;;;19.30;3.40;;;14.80;99.90;;;;;;5007995;28;20065;-38
2022/10/18 10:28:31;;;;;;;16.85;2.92;;;14.80;99.90;;;;;;5007478;28;20050;-38
2022/10/18 10:31:30;;;;;;;13.40;2.67;;;14.90;99.90;;;;;;5007345;28;20125;-38
2022/10/18 10:33:58;;;;;;;13.95;3.25;;;14.90;99.90;;;;;;4995044;28;20093;-38
2022/10/18 10:36:24;;;;;;;14.98;3.00;;;14.90;99.90;;;;;;5007447;28;20580;-39
2022/10/18 10:39:10;;;;;;;15.13;3.67;;;14.90;99.90;;;;;;5006693;28;20152;-38
2022/10/18 10:41:38;;;;;;;18.92;4.22;;;15.00;99.90;;;;;;5007110;28;20485;-38
2022/10/18 10:44:14;;;;;;;13.40;2.90;;;15.10;99.90;;;;;;5010458;28;20042;-39
2022/10/18 10:46:40;;;;;;;14.27;2.25;;;15.20;99.90;;;;;;5011385;28;20061;-38
2022/10/18 10:49:05;;;;;;;20.08;2.35;;;15.30;99.90;;;;;;5010886;28;20381;-38
2022/10/18 10:51:35;;;;;;;12.63;2.28;;;15.50;99.90;;;;;;5010612;28;20084;-39
2022/10/18 10:54:12;;;;;;;18.40;3.28;;;15.50;99.90;;;;;;5010701;28;20081;-38
2022/10/18 10:56:56;;;;;;;17.85;1.55;;;15.50;99.90;;;;;;5011498;28;20053;-39
2022/10/18 10:59:25;;;;;;;13.43;1.65;;;15.40;99.90;;;;;;5010930;28;20491;-38
2022/10/18 11:02:16;;;;;;;11.48;1.20;;;15.30;99.90;;;;;;5011084;28;20034;-39
2022/10/18 11:04:50;;;;;;;8.35;0.93;;;15.10;99.90;;;;;;5010891;28;20056;-38
2022/10/18 11:07:30;;;;;;;12.38;1.00;;;15.10;99.90;;;;;;5010393;28;20069;-38
2022/10/18 11:10:22;;;;;;;13.60;1.45;;;14.80;99.90;;;;;;5010318;28;20283;-38
2022/10/18 11:13:16;;;;;;;9.05;1.10;;;14.80;99.90;;;;;;5009303;28;20056;-38
2022/10/18 11:15:48;;;;;;;14.68;1.58;;;14.80;99.90;;;;;;5009464;28;20129;-38
2022/10/18 11:18:22;;;;;;;7.97;1.20;;;14.90;99.90;;;;;;5009286;28;20056;-38
2022/10/18 11:21:06;;;;;;;11.10;1.08;;;14.90;99.90;;;;;;5010142;28;20476;-38
2022/10/18 11:23:35;;;;;;;12.88;1.13;;;14.90;99.90;;;;;;5010699;28;20074;-38
2022/10/18 11:26:09;;;;;;;7.35;1.52;;;14.90;99.90;;;;;;5010239;28;20050;-38
2022/10/18 11:28:35;;;;;;;15.10;1.65;;;14.80;99.90;;;;;;5010942;28;20049;-39
2022/10/18 11:31:35;;;;;;;14.65;1.55;;;14.70;99.90;;;;;;5010198;28;20045;-38
2022/10/18 11:34:34;;;;;;;10.65;1.45;;;14.80;99.90;;;;;;5009566;28;20605;-38
2022/10/18 11:37:13;;;;;;;13.32;0.80;;;14.80;99.90;;;;;;5009880;28;20056;-38
2022/10/18 11:40:19;;;;;;;10.82;1.00;;;14.80;99.90;;;;;;5009489;28;20073;-39
2022/10/18 11:43:11;;;;;;;9.18;0.70;;;15.00;99.90;;;;;;5009956;28;20049;-38
2022/10/18 11:45:55;;;;;;;5.90;0.90;;;15.10;99.90;;;;;;5010050;28;20049;-38
2022/10/18 11:48:59;;;;;;;18.27;1.38;;;15.20;99.90;;;;;;5009795;28;20049;-38
2022/10/18 11:51:25;;;;;;;10.57;0.80;;;15.20;99.90;;;;;;5009289;28;20041;-38
2022/10/18 11:54:09;;;;;;;10.02;1.17;;;15.30;99.90;;;;;;5009335;28;20046;-38
2022/10/18 11:56:48;;;;;;;13.23;1.63;;;15.10;99.90;;;;;;5009568;28;20046;-38
2022/10/18 11:59:37;;;;;;;13.35;1.40;;;15.10;99.90;;;;;;5009114;28;20053;-39
2022/10/18 12:02:41;;;;;;;10.13;0.93;;;15.10;99.90;;;;;;5009650;28;20042;-39
2022/10/18 12:05:08;;;;;;;10.25;0.85;;;15.10;99.90;;;;;;5008281;28;20387;-38
2022/10/18 12:07:47;;;;;;;10.20;1.00;;;15.00;99.90;;;;;;5009968;28;20176;-38
2022/10/18 12:10:19;;;;;;;12.02;0.88;;;15.00;99.90;;;;;;5009021;28;20097;-38
2022/10/18 12:12:55;;;;;;;6.07;0.50;;;15.00;99.90;;;;;;5009428;28;20053;-38
2022/10/18 12:15:24;;;;;;;14.73;1.20;;;15.00;99.90;;;;;;5009331;28;20308;-38
2022/10/18 12:17:54;;;;;;;8.70;1.20;;;15.00;99.90;;;;;;5009094;28;20049;-38
2022/10/18 12:20:41;;;;;;;10.07;0.80;;;14.90;99.90;;;;;;5008171;28;20052;-38
2022/10/18 12:23:41;;;;;;;7.30;0.70;;;15.10;99.90;;;;;;5009296;28;20052;-39
2022/10/18 12:26:09;;;;;;;9.25;1.48;;;15.30;99.90;;;;;;5009076;28;20108;-38
2022/10/18 12:28:49;;;;;;;13.60;0.90;;;15.50;99.90;;;;;;5008870;28;20081;-38
2022/10/18 12:31:24;;;;;;;8.80;1.00;;;15.50;99.90;;;;;;5009055;28;20846;-38
2022/10/18 12:33:59;;;;;;;5.43;0.30;;;15.30;99.90;;;;;;5009308;28;20054;-39
2022/10/18 12:36:59;;;;;;;9.20;0.80;;;15.20;99.90;;;;;;5008580;28;20045;-39
2022/10/18 12:39:30;;;;;;;10.73;1.30;;;15.10;99.90;;;;;;5008827;28;20045;-38
2022/10/18 12:41:56;;;;;;;8.57;0.40;;;14.80;99.90;;;;;;5008529;28;20116;-38
2022/10/18 12:44:33;;;;;;;7.10;1.15;;;14.60;99.90;;;;;;5008093;28;20209;-38